Nearby METAR Reports

 

KSJC - San Jose, California, USA
Distance from station: NO 14km
Uppdaterad: 2019-01-21 21:53
Few Clouds
Few Clouds
 Vind från NNV
Vind: NNV 19 km/h
Temperatur: 13°C
Daggpunkt: 6°C
Luftfuktighet: 63%
Barometer: 1024 hPa
Clouds: Few Clouds
Visibility: 16 km
Cloud details: Few Clouds 1158 m
2019/01/21 20:53 KSJC 212053Z 33010KT 10SM FEW038 13/06 A3024 RMK AO2 SLP239 T01280056 50001 $
KNUQ - Moffett Nas/Mtn, California, USA
Distance from station: N 14km
Uppdaterad: 2019-01-21 21:56
Klart
Klart
 Vind från N
Vind: N 17 km/h
Temperatur: 13°C
Daggpunkt: 6°C
Luftfuktighet: 63%
Barometer: 1024 hPa
Clouds: Klart
Visibility: 16 km
2019/01/21 20:56 KNUQ 212056Z AUTO 36009KT 10SM CLR 13/06 A3024 RMK AO2 SLP243 T01330061 58000
 
KPAO - Palo Alto, California, USA
Distance from station: NNV 23km
Uppdaterad: 2019-01-21 20:47
NOT Current
Delvis molnigt
Delvis molnigt
 Vind från N
Vind: N 19 km/h
Temperatur: 13°C
Daggpunkt: 7°C
Luftfuktighet: 67%
Barometer: 1024.4 hPa
Clouds: Delvis molnigt
Visibility: 16 km
Cloud details: Delvis molnigt 914 m
2019/01/21 19:47 KPAO 211947Z 35010KT 10SM SCT030 13/07 A3025
KRHV - San Jose/Reid, California, USA
Distance from station: ONO 19km
Uppdaterad: 2019-01-21 21:47
Övervägande molnigt
Övervägande molnigt
 Vind från N
Vind: N 20 km/h
Temperatur: 14°C
Daggpunkt: 5°C
Luftfuktighet: 55%
Barometer: 1023.4 hPa
Clouds: Övervägande molnigt
Visibility: 16 km
Cloud details: Övervägande molnigt 914 m
2019/01/21 20:47 KRHV 212047Z 35011KT 10SM BKN030 14/05 A3022
 
KOAK - Oakland, California, USA
Distance from station: NNV 50km
Uppdaterad: 2019-01-21 21:53
Few Clouds
Few Clouds
 Vind från NV
Vind: NV 9 km/h
Temperatur: 14°C
Daggpunkt: 5°C
Luftfuktighet: 55%
Barometer: 1024 hPa
Clouds: Few Clouds
Visibility: 16 km
Cloud details: Few Clouds 1067 m
2019/01/21 20:53 KOAK 212053Z 31005KT 10SM FEW035 14/05 A3024 RMK AO2 SLP240 T01390050 50002
KSQL - San Carlos Airpo, California, USA
Distance from station: NV 34km
Uppdaterad: 2019-01-21 21:47
Few Clouds
Few Clouds
 Vind från NNV
Vind: NNV 13 km/h
Temperatur: 13°C
Daggpunkt: 5°C
Luftfuktighet: 59%
Barometer: 1024 hPa
Clouds: Few Clouds
Visibility: 16 km
Cloud details: Few Clouds 1097 m
2019/01/21 20:47 KSQL 212047Z 34007KT 10SM FEW036 13/05 A3024
 
KSFO - San Francisco, California, USA
Distance from station: NV 49km
Uppdaterad: 2019-01-21 21:56
Few Clouds
Few Clouds
 Vind från N
Vind: N 11 km/h
Temperatur: 13°C
Daggpunkt: 4°C
Luftfuktighet: 55%
Barometer: 1023.7 hPa
Clouds: Few Clouds
Visibility: 16 km
Cloud details: Few Clouds 1097 m
2019/01/21 20:56 KSFO 212056Z 01006KT 10SM FEW036 13/04 A3023 RMK AO2 SLP236 T01330044 50000 $
KE16 - San Martin, California, USA
Distance from station: OSO 43km
Uppdaterad: 2019-01-21 21:50
Klart
Klart
 Vind från NV
Vind: NV 20 km/h, Vindby: 35 km/h
Temperatur: 13°C
Daggpunkt: 5°C
Luftfuktighet: 59%
Barometer: 1024 hPa
Clouds: Klart
Visibility: 16 km
2019/01/21 20:50 KE16 212050Z AUTO 32011G19KT 10SM CLR 13/05 A3024 RMK AO2 PWINO PNO
 
KWVI - Watsonville, California, USA
Distance from station: SSO 44km
Uppdaterad: 2019-01-21 21:53
Delvis molnigt
Delvis molnigt
 Vind från OSO
Vind: OSO 6 km/h
Temperatur: 14°C
Daggpunkt: 6°C
Luftfuktighet: 59%
Barometer: 1023.7 hPa
Clouds: Delvis molnigt
Visibility: 16 km
Cloud details: Delvis molnigt 1250 m
Delvis molnigt 1494 m
2019/01/21 20:53 KWVI 212053Z AUTO 11003KT 10SM SCT041 SCT049 14/06 A3023 RMK AO2 SLP235 T01440061 58005
KHAF - Half Moon Bay, California, USA
Distance from station: VNV 50km
Uppdaterad: 2019-01-21 22:00
Few Clouds
Few Clouds
 Vind från NNV
Vind: NNV 28 km/h, Vindby: 41 km/h
Temperatur: 13°C
Daggpunkt: 7°C
Luftfuktighet: 67%
Barometer: 1024 hPa
Clouds: Few Clouds
Visibility: 11 km
Cloud details: Few Clouds 823 m
2019/01/21 21:00 KHAF 212100Z AUTO 33015G22KT 7SM FEW027 13/07 A3024 RMK AO2
 
KHWD - Hayward, California, USA
Distance from station: N 44km
Uppdaterad: 2019-01-21 21:54
Klart
Klart
 Vind från VNV
Vind: VNV 15 km/h
Temperatur: 14°C
Daggpunkt: 5°C
Luftfuktighet: 55%
Barometer: 1023.7 hPa
Clouds: Klart
Visibility: 16 km
2019/01/21 20:54 KHWD 212054Z 30008KT 10SM CLR 14/05 A3023 RMK AO2 SLP247 T01440050 50000
KLVK - Livermore, California, USA
Distance from station: NNO 51km
Uppdaterad: 2019-01-21 21:53
Delvis molnigt
Delvis molnigt
 Vind från VSV
Vind: VSV 11 km/h
Temperatur: 13°C
Daggpunkt: 6°C
Luftfuktighet: 63%
Barometer: 1023.4 hPa
Clouds: Delvis molnigt
Visibility: 16 km
Cloud details: Delvis molnigt 1006 m
2019/01/21 20:53 KLVK 212053Z 24006KT 10SM SCT033 13/06 A3022 RMK AO2 SLP233 T01280056 58000